sensor_id;sensor_type;location;lat;lon;timestamp;P1;durP1;ratioP1;P2;durP2;ratioP2
83471;SDS011;74051;47.120;18.370;2024-01-30T07:15:11;73.05;;;26.92;;
83471;SDS011;74051;47.120;18.370;2024-01-30T07:17:41;65.35;;;25.58;;
83471;SDS011;74051;47.120;18.370;2024-01-30T07:20:07;58.03;;;22.83;;
83471;SDS011;74051;47.120;18.370;2024-01-30T07:22:35;55.08;;;22.50;;
83471;SDS011;74051;47.120;18.370;2024-01-30T07:25:01;57.72;;;24.80;;
83471;SDS011;74051;47.120;18.370;2024-01-30T07:27:28;43.25;;;20.58;;
83471;SDS011;74051;47.120;18.370;2024-01-30T07:29:54;50.17;;;22.42;;
83471;SDS011;74051;47.120;18.370;2024-01-30T07:32:21;86.45;;;43.60;;
83471;SDS011;74051;47.120;18.370;2024-01-30T07:34:48;69.43;;;34.65;;
83471;SDS011;74051;47.120;18.370;2024-01-30T07:37:14;39.92;;;20.17;;
83471;SDS011;74051;47.120;18.370;2024-01-30T07:39:42;36.35;;;17.58;;
83471;SDS011;74051;47.120;18.370;2024-01-30T07:42:09;34.60;;;16.35;;
83471;SDS011;74051;47.120;18.370;2024-01-30T07:44:35;37.03;;;17.52;;
83471;SDS011;74051;47.120;18.370;2024-01-30T07:47:02;40.85;;;17.88;;
83471;SDS011;74051;47.120;18.370;2024-01-30T07:49:29;21.70;;;11.50;;
83471;SDS011;74051;47.120;18.370;2024-01-30T07:51:55;32.58;;;15.73;;
83471;SDS011;74051;47.120;18.370;2024-01-30T07:54:22;27.83;;;14.07;;
83471;SDS011;74051;47.120;18.370;2024-01-30T07:56:49;27.48;;;15.25;;
83471;SDS011;74051;47.120;18.370;2024-01-30T07:59:16;23.83;;;12.55;;
83471;SDS011;74051;47.120;18.370;2024-01-30T08:01:42;31.23;;;17.05;;
83471;SDS011;74051;47.120;18.370;2024-01-30T08:04:09;30.52;;;16.40;;
83471;SDS011;74051;47.120;18.370;2024-01-30T08:06:35;36.25;;;17.10;;
83471;SDS011;74051;47.120;18.370;2024-01-30T08:09:02;42.10;;;22.95;;
83471;SDS011;74051;47.120;18.370;2024-01-30T08:11:28;26.85;;;13.38;;
83471;SDS011;74051;47.120;18.370;2024-01-30T08:13:55;34.38;;;20.15;;
83471;SDS011;74051;47.120;18.370;2024-01-30T08:16:21;29.55;;;15.23;;
83471;SDS011;74051;47.120;18.370;2024-01-30T08:18:48;30.55;;;14.85;;
83471;SDS011;74051;47.120;18.370;2024-01-30T08:21:14;21.17;;;11.75;;
83471;SDS011;74051;47.120;18.370;2024-01-30T08:23:40;14.35;;;8.02;;
83471;SDS011;74051;47.120;18.370;2024-01-30T08:26:07;26.63;;;13.60;;
83471;SDS011;74051;47.120;18.370;2024-01-30T08:28:34;16.60;;;8.32;;
83471;SDS011;74051;47.120;18.370;2024-01-30T08:31:00;25.48;;;12.80;;
83471;SDS011;74051;47.120;18.370;2024-01-30T08:33:26;25.60;;;12.85;;
83471;SDS011;74051;47.120;18.370;2024-01-30T08:35:53;17.20;;;8.68;;
83471;SDS011;74051;47.120;18.370;2024-01-30T08:38:20;26.98;;;10.85;;
83471;SDS011;74051;47.120;18.370;2024-01-30T08:40:46;25.58;;;12.90;;
83471;SDS011;74051;47.120;18.370;2024-01-30T08:43:13;24.10;;;12.93;;
83471;SDS011;74051;47.120;18.370;2024-01-30T08:45:39;16.48;;;8.88;;
83471;SDS011;74051;47.120;18.370;2024-01-30T08:48:05;25.35;;;11.75;;
83471;SDS011;74051;47.120;18.370;2024-01-30T08:50:32;22.77;;;13.63;;
83471;SDS011;74051;47.120;18.370;2024-01-30T08:52:59;24.58;;;11.32;;
83471;SDS011;74051;47.120;18.370;2024-01-30T08:55:25;20.70;;;11.82;;
83471;SDS011;74051;47.120;18.370;2024-01-30T08:57:52;20.60;;;11.48;;
83471;SDS011;74051;47.120;18.370;2024-01-30T09:00:19;26.92;;;12.23;;
83471;SDS011;74051;47.120;18.370;2024-01-30T09:02:46;19.02;;;8.77;;
83471;SDS011;74051;47.120;18.370;2024-01-30T09:05:12;19.40;;;9.30;;
83471;SDS011;74051;47.120;18.370;2024-01-30T09:07:39;18.98;;;10.10;;
83471;SDS011;74051;47.120;18.370;2024-01-30T09:10:05;19.55;;;10.25;;
83471;SDS011;74051;47.120;18.370;2024-01-30T09:12:32;24.63;;;12.63;;
83471;SDS011;74051;47.120;18.370;2024-01-30T09:14:59;21.38;;;10.90;;
83471;SDS011;74051;47.120;18.370;2024-01-30T09:17:25;25.23;;;13.25;;
83471;SDS011;74051;47.120;18.370;2024-01-30T09:19:52;24.95;;;12.25;;
83471;SDS011;74051;47.120;18.370;2024-01-30T09:22:18;20.88;;;8.98;;
83471;SDS011;74051;47.120;18.370;2024-01-30T09:24:45;24.13;;;12.40;;
83471;SDS011;74051;47.120;18.370;2024-01-30T09:27:11;16.20;;;9.45;;
83471;SDS011;74051;47.120;18.370;2024-01-30T09:29:38;10.32;;;5.95;;
83471;SDS011;74051;47.120;18.370;2024-01-30T09:32:05;18.63;;;10.48;;
83471;SDS011;74051;47.120;18.370;2024-01-30T09:34:32;25.20;;;12.48;;
83471;SDS011;74051;47.120;18.370;2024-01-30T09:36:59;22.55;;;11.63;;
83471;SDS011;74051;47.120;18.370;2024-01-30T09:39:26;19.42;;;9.75;;
83471;SDS011;74051;47.120;18.370;2024-01-30T09:42:02;26.77;;;15.02;;
83471;SDS011;74051;47.120;18.370;2024-01-30T09:44:36;25.77;;;13.75;;
83471;SDS011;74051;47.120;18.370;2024-01-30T09:47:04;22.90;;;12.40;;
83471;SDS011;74051;47.120;18.370;2024-01-30T09:49:32;20.38;;;11.27;;
83471;SDS011;74051;47.120;18.370;2024-01-30T09:52:00;17.73;;;9.65;;
83471;SDS011;74051;47.120;18.370;2024-01-30T09:54:31;23.92;;;11.27;;
83471;SDS011;74051;47.120;18.370;2024-01-30T09:56:58;21.77;;;10.40;;
83471;SDS011;74051;47.120;18.370;2024-01-30T09:59:24;22.33;;;11.75;;
83471;SDS011;74051;47.120;18.370;2024-01-30T10:01:51;25.40;;;11.85;;
83471;SDS011;74051;47.120;18.370;2024-01-30T10:04:18;22.52;;;11.48;;
83471;SDS011;74051;47.120;18.370;2024-01-30T10:06:44;27.20;;;13.90;;
83471;SDS011;74051;47.120;18.370;2024-01-30T10:09:11;21.42;;;12.60;;
83471;SDS011;74051;47.120;18.370;2024-01-30T10:11:37;21.52;;;12.32;;
83471;SDS011;74051;47.120;18.370;2024-01-30T10:14:04;21.05;;;11.75;;
83471;SDS011;74051;47.120;18.370;2024-01-30T10:16:30;22.83;;;10.75;;
83471;SDS011;74051;47.120;18.370;2024-01-30T10:18:57;19.77;;;10.18;;
83471;SDS011;74051;47.120;18.370;2024-01-30T10:21:23;16.05;;;7.68;;
83471;SDS011;74051;47.120;18.370;2024-01-30T10:23:49;12.40;;;7.82;;
83471;SDS011;74051;47.120;18.370;2024-01-30T10:26:16;27.80;;;13.68;;
83471;SDS011;74051;47.120;18.370;2024-01-30T10:28:43;24.88;;;12.60;;
83471;SDS011;74051;47.120;18.370;2024-01-30T10:31:10;30.77;;;14.57;;
83471;SDS011;74051;47.120;18.370;2024-01-30T10:33:36;15.52;;;8.82;;
83471;SDS011;74051;47.120;18.370;2024-01-30T10:36:04;18.90;;;9.02;;
83471;SDS011;74051;47.120;18.370;2024-01-30T10:38:32;18.13;;;9.75;;
83471;SDS011;74051;47.120;18.370;2024-01-30T10:40:59;29.02;;;14.35;;
83471;SDS011;74051;47.120;18.370;2024-01-30T10:43:30;29.98;;;14.63;;
83471;SDS011;74051;47.120;18.370;2024-01-30T10:46:03;28.90;;;14.20;;
83471;SDS011;74051;47.120;18.370;2024-01-30T10:48:53;30.13;;;15.23;;
83471;SDS011;74051;47.120;18.370;2024-01-30T10:51:27;28.10;;;16.17;;
83471;SDS011;74051;47.120;18.370;2024-01-30T10:53:55;26.88;;;14.52;;
83471;SDS011;74051;47.120;18.370;2024-01-30T10:56:22;26.40;;;13.25;;
83471;SDS011;74051;47.120;18.370;2024-01-30T10:58:50;27.73;;;13.23;;
83471;SDS011;74051;47.120;18.370;2024-01-30T11:01:21;17.10;;;9.18;;
83471;SDS011;74051;47.120;18.370;2024-01-30T11:03:51;29.05;;;15.43;;
83471;SDS011;74051;47.120;18.370;2024-01-30T11:06:23;25.50;;;13.52;;
83471;SDS011;74051;47.120;18.370;2024-01-30T11:09:03;27.30;;;13.73;;
83471;SDS011;74051;47.120;18.370;2024-01-30T11:11:56;25.48;;;12.15;;
83471;SDS011;74051;47.120;18.370;2024-01-30T11:14:28;19.45;;;9.13;;
83471;SDS011;74051;47.120;18.370;2024-01-30T11:16:59;25.92;;;13.05;;
83471;SDS011;74051;47.120;18.370;2024-01-30T11:19:26;21.17;;;11.43;;
83471;SDS011;74051;47.120;18.370;2024-01-30T11:21:53;25.80;;;14.00;;
83471;SDS011;74051;47.120;18.370;2024-01-30T11:24:20;26.65;;;12.05;;
83471;SDS011;74051;47.120;18.370;2024-01-30T11:26:57;23.17;;;11.80;;
83471;SDS011;74051;47.120;18.370;2024-01-30T11:29:27;15.63;;;10.20;;
83471;SDS011;74051;47.120;18.370;2024-01-30T11:31:54;14.27;;;8.05;;
83471;SDS011;74051;47.120;18.370;2024-01-30T11:34:22;10.65;;;6.78;;
83471;SDS011;74051;47.120;18.370;2024-01-30T11:36:55;19.15;;;11.07;;
83471;SDS011;74051;47.120;18.370;2024-01-30T11:39:25;15.13;;;6.93;;
83471;SDS011;74051;47.120;18.370;2024-01-30T11:41:52;19.00;;;9.38;;
83471;SDS011;74051;47.120;18.370;2024-01-30T11:44:19;25.63;;;12.38;;
83471;SDS011;74051;47.120;18.370;2024-01-30T11:46:48;14.23;;;7.70;;
83471;SDS011;74051;47.120;18.370;2024-01-30T11:49:15;19.23;;;10.68;;
83471;SDS011;74051;47.120;18.370;2024-01-30T11:51:42;8.35;;;5.70;;
83471;SDS011;74051;47.120;18.370;2024-01-30T11:54:09;21.42;;;11.48;;
83471;SDS011;74051;47.120;18.370;2024-01-30T11:56:36;15.90;;;8.02;;
83471;SDS011;74051;47.120;18.370;2024-01-30T11:59:04;15.23;;;7.15;;
83471;SDS011;74051;47.120;18.370;2024-01-30T12:01:31;16.83;;;7.65;;
83471;SDS011;74051;47.120;18.370;2024-01-30T12:03:58;21.63;;;9.95;;
83471;SDS011;74051;47.120;18.370;2024-01-30T12:06:25;11.77;;;6.07;;
83471;SDS011;74051;47.120;18.370;2024-01-30T12:08:56;18.95;;;9.35;;
83471;SDS011;74051;47.120;18.370;2024-01-30T12:11:26;15.25;;;8.13;;
83471;SDS011;74051;47.120;18.370;2024-01-30T12:13:55;17.95;;;8.38;;
83471;SDS011;74051;47.120;18.370;2024-01-30T12:16:22;16.55;;;9.18;;
83471;SDS011;74051;47.120;18.370;2024-01-30T12:18:49;23.23;;;10.73;;
83471;SDS011;74051;47.120;18.370;2024-01-30T12:21:26;17.30;;;8.38;;
83471;SDS011;74051;47.120;18.370;2024-01-30T12:23:52;18.75;;;8.68;;
83471;SDS011;74051;47.120;18.370;2024-01-30T12:26:19;14.52;;;7.82;;
83471;SDS011;74051;47.120;18.370;2024-01-30T12:28:49;9.55;;;4.55;;
83471;SDS011;74051;47.120;18.370;2024-01-30T12:31:16;17.98;;;9.73;;
83471;SDS011;74051;47.120;18.370;2024-01-30T12:33:42;10.93;;;5.40;;
83471;SDS011;74051;47.120;18.370;2024-01-30T12:36:09;15.98;;;8.70;;
83471;SDS011;74051;47.120;18.370;2024-01-30T12:38:37;13.65;;;5.10;;
83471;SDS011;74051;47.120;18.370;2024-01-30T12:41:04;12.85;;;7.32;;
83471;SDS011;74051;47.120;18.370;2024-01-30T12:43:33;15.55;;;7.20;;
83471;SDS011;74051;47.120;18.370;2024-01-30T12:46:00;14.23;;;6.85;;
83471;SDS011;74051;47.120;18.370;2024-01-30T12:48:27;23.02;;;11.02;;
83471;SDS011;74051;47.120;18.370;2024-01-30T12:50:56;22.50;;;10.38;;
83471;SDS011;74051;47.120;18.370;2024-01-30T12:53:23;12.35;;;6.25;;
83471;SDS011;74051;47.120;18.370;2024-01-30T12:55:49;14.25;;;7.45;;
83471;SDS011;74051;47.120;18.370;2024-01-30T12:58:16;19.55;;;9.48;;
83471;SDS011;74051;47.120;18.370;2024-01-30T13:00:42;12.10;;;6.68;;
83471;SDS011;74051;47.120;18.370;2024-01-30T13:03:09;19.58;;;8.27;;
83471;SDS011;74051;47.120;18.370;2024-01-30T13:05:36;13.55;;;6.53;;
83471;SDS011;74051;47.120;18.370;2024-01-30T13:08:03;15.75;;;7.78;;
83471;SDS011;74051;47.120;18.370;2024-01-30T13:10:29;12.02;;;6.35;;
83471;SDS011;74051;47.120;18.370;2024-01-30T13:12:56;15.27;;;7.63;;
83471;SDS011;74051;47.120;18.370;2024-01-30T13:15:22;13.57;;;7.95;;
83471;SDS011;74051;47.120;18.370;2024-01-30T13:17:49;18.15;;;8.48;;
83471;SDS011;74051;47.120;18.370;2024-01-30T13:20:16;15.55;;;8.18;;
83471;SDS011;74051;47.120;18.370;2024-01-30T13:22:46;9.43;;;5.07;;
83471;SDS011;74051;47.120;18.370;2024-01-30T13:25:14;13.05;;;6.47;;
83471;SDS011;74051;47.120;18.370;2024-01-30T13:27:41;14.18;;;7.00;;
83471;SDS011;74051;47.120;18.370;2024-01-30T13:30:08;13.32;;;5.03;;
83471;SDS011;74051;47.120;18.370;2024-01-30T13:32:38;16.67;;;7.57;;
83471;SDS011;74051;47.120;18.370;2024-01-30T13:35:04;14.18;;;7.82;;
83471;SDS011;74051;47.120;18.370;2024-01-30T13:37:31;20.42;;;7.85;;
83471;SDS011;74051;47.120;18.370;2024-01-30T13:39:57;14.95;;;7.10;;
83471;SDS011;74051;47.120;18.370;2024-01-30T13:42:24;12.73;;;6.22;;
83471;SDS011;74051;47.120;18.370;2024-01-30T13:44:50;13.32;;;7.22;;
83471;SDS011;74051;47.120;18.370;2024-01-30T13:47:16;17.98;;;8.73;;
83471;SDS011;74051;47.120;18.370;2024-01-30T13:49:45;9.40;;;4.97;;
83471;SDS011;74051;47.120;18.370;2024-01-30T13:52:11;8.52;;;4.30;;
83471;SDS011;74051;47.120;18.370;2024-01-30T13:54:39;8.60;;;2.90;;
83471;SDS011;74051;47.120;18.370;2024-01-30T13:57:05;6.82;;;3.53;;
83471;SDS011;74051;47.120;18.370;2024-01-30T13:59:33;5.28;;;2.95;;
83471;SDS011;74051;47.120;18.370;2024-01-30T14:01:59;4.45;;;2.17;;
83471;SDS011;74051;47.120;18.370;2024-01-30T14:04:26;11.70;;;5.47;;
83471;SDS011;74051;47.120;18.370;2024-01-30T14:06:52;9.63;;;3.97;;
83471;SDS011;74051;47.120;18.370;2024-01-30T14:09:19;13.80;;;4.80;;
83471;SDS011;74051;47.120;18.370;2024-01-30T14:11:47;9.23;;;4.05;;
83471;SDS011;74051;47.120;18.370;2024-01-30T14:14:13;12.45;;;5.97;;
83471;SDS011;74051;47.120;18.370;2024-01-30T14:16:39;7.00;;;4.47;;
83471;SDS011;74051;47.120;18.370;2024-01-30T14:19:06;8.73;;;4.45;;
83471;SDS011;74051;47.120;18.370;2024-01-30T14:21:33;19.55;;;6.97;;
83471;SDS011;74051;47.120;18.370;2024-01-30T14:24:00;14.35;;;6.53;;
83471;SDS011;74051;47.120;18.370;2024-01-30T14:26:30;15.57;;;4.28;;
83471;SDS011;74051;47.120;18.370;2024-01-30T14:28:56;10.63;;;4.40;;
83471;SDS011;74051;47.120;18.370;2024-01-30T14:31:23;11.23;;;4.38;;
83471;SDS011;74051;47.120;18.370;2024-01-30T14:33:50;10.23;;;5.95;;
83471;SDS011;74051;47.120;18.370;2024-01-30T14:36:17;12.05;;;5.63;;
83471;SDS011;74051;47.120;18.370;2024-01-30T14:38:43;7.68;;;4.25;;
83471;SDS011;74051;47.120;18.370;2024-01-30T14:41:12;5.78;;;3.80;;
83471;SDS011;74051;47.120;18.370;2024-01-30T14:43:38;8.70;;;4.53;;
83471;SDS011;74051;47.120;18.370;2024-01-30T14:46:04;14.30;;;6.95;;
83471;SDS011;74051;47.120;18.370;2024-01-30T14:48:33;9.95;;;3.80;;
83471;SDS011;74051;47.120;18.370;2024-01-30T14:50:59;10.40;;;4.03;;
83471;SDS011;74051;47.120;18.370;2024-01-30T14:53:26;7.22;;;3.53;;
83471;SDS011;74051;47.120;18.370;2024-01-30T14:55:53;9.80;;;4.68;;
83471;SDS011;74051;47.120;18.370;2024-01-30T14:58:20;16.08;;;6.40;;
83471;SDS011;74051;47.120;18.370;2024-01-30T15:00:46;5.85;;;3.08;;
83471;SDS011;74051;47.120;18.370;2024-01-30T15:03:12;13.10;;;5.88;;
83471;SDS011;74051;47.120;18.370;2024-01-30T15:05:39;10.35;;;4.50;;
83471;SDS011;74051;47.120;18.370;2024-01-30T15:08:05;9.82;;;4.35;;
83471;SDS011;74051;47.120;18.370;2024-01-30T15:10:32;15.48;;;6.97;;
83471;SDS011;74051;47.120;18.370;2024-01-30T15:12:58;17.33;;;6.72;;
83471;SDS011;74051;47.120;18.370;2024-01-30T15:15:25;6.97;;;3.80;;
83471;SDS011;74051;47.120;18.370;2024-01-30T15:17:52;9.95;;;5.22;;
83471;SDS011;74051;47.120;18.370;2024-01-30T15:20:19;8.43;;;4.80;;
83471;SDS011;74051;47.120;18.370;2024-01-30T15:22:45;8.18;;;5.18;;
83471;SDS011;74051;47.120;18.370;2024-01-30T15:25:12;16.30;;;4.63;;
83471;SDS011;74051;47.120;18.370;2024-01-30T15:27:39;4.70;;;2.95;;
83471;SDS011;74051;47.120;18.370;2024-01-30T15:30:05;8.15;;;4.00;;
83471;SDS011;74051;47.120;18.370;2024-01-30T15:32:33;12.50;;;5.88;;
83471;SDS011;74051;47.120;18.370;2024-01-30T15:34:59;7.20;;;4.10;;
83471;SDS011;74051;47.120;18.370;2024-01-30T15:37:29;10.35;;;5.10;;
83471;SDS011;74051;47.120;18.370;2024-01-30T15:39:55;15.32;;;6.70;;
83471;SDS011;74051;47.120;18.370;2024-01-30T15:42:22;9.15;;;5.25;;
83471;SDS011;74051;47.120;18.370;2024-01-30T15:44:49;8.75;;;3.58;;
83471;SDS011;74051;47.120;18.370;2024-01-30T15:47:16;13.55;;;3.45;;
83471;SDS011;74051;47.120;18.370;2024-01-30T15:49:42;10.05;;;5.50;;
83471;SDS011;74051;47.120;18.370;2024-01-30T15:52:08;14.07;;;6.72;;
83471;SDS011;74051;47.120;18.370;2024-01-30T15:54:40;13.20;;;6.28;;
83471;SDS011;74051;47.120;18.370;2024-01-30T15:57:06;14.52;;;7.28;;
83471;SDS011;74051;47.120;18.370;2024-01-30T15:59:33;14.90;;;7.50;;
83471;SDS011;74051;47.120;18.370;2024-01-30T16:01:59;16.05;;;8.40;;
83471;SDS011;74051;47.120;18.370;2024-01-30T16:04:25;22.83;;;9.65;;
83471;SDS011;74051;47.120;18.370;2024-01-30T16:06:52;16.15;;;7.97;;
83471;SDS011;74051;47.120;18.370;2024-01-30T16:09:18;16.10;;;7.78;;
83471;SDS011;74051;47.120;18.370;2024-01-30T16:11:44;30.55;;;14.90;;
83471;SDS011;74051;47.120;18.370;2024-01-30T16:14:11;37.78;;;18.52;;
83471;SDS011;74051;47.120;18.370;2024-01-30T16:16:37;29.92;;;13.30;;
83471;SDS011;74051;47.120;18.370;2024-01-30T16:19:05;24.85;;;13.10;;
83471;SDS011;74051;47.120;18.370;2024-01-30T16:21:31;22.23;;;11.10;;
83471;SDS011;74051;47.120;18.370;2024-01-30T16:23:59;19.98;;;11.18;;
83471;SDS011;74051;47.120;18.370;2024-01-30T16:26:26;16.65;;;10.38;;
83471;SDS011;74051;47.120;18.370;2024-01-30T16:28:53;19.20;;;9.85;;
83471;SDS011;74051;47.120;18.370;2024-01-30T16:31:20;21.23;;;10.50;;
83471;SDS011;74051;47.120;18.370;2024-01-30T16:33:46;14.90;;;9.43;;
83471;SDS011;74051;47.120;18.370;2024-01-30T16:36:14;17.35;;;8.93;;
83471;SDS011;74051;47.120;18.370;2024-01-30T16:38:42;17.05;;;10.02;;
83471;SDS011;74051;47.120;18.370;2024-01-30T16:41:08;21.58;;;8.50;;
83471;SDS011;74051;47.120;18.370;2024-01-30T16:43:34;17.05;;;8.95;;
83471;SDS011;74051;47.120;18.370;2024-01-30T16:46:00;15.20;;;9.25;;
83471;SDS011;74051;47.120;18.370;2024-01-30T16:48:27;18.63;;;8.80;;
83471;SDS011;74051;47.120;18.370;2024-01-30T16:50:53;17.08;;;8.95;;
83471;SDS011;74051;47.120;18.370;2024-01-30T16:53:19;20.55;;;9.45;;
83471;SDS011;74051;47.120;18.370;2024-01-30T16:55:45;20.60;;;9.77;;
83471;SDS011;74051;47.120;18.370;2024-01-30T16:58:12;21.38;;;9.85;;
83471;SDS011;74051;47.120;18.370;2024-01-30T17:00:39;22.65;;;10.40;;
83471;SDS011;74051;47.120;18.370;2024-01-30T17:03:06;25.73;;;12.23;;
83471;SDS011;74051;47.120;18.370;2024-01-30T17:05:32;20.85;;;11.35;;
83471;SDS011;74051;47.120;18.370;2024-01-30T17:07:59;29.00;;;11.98;;
83471;SDS011;74051;47.120;18.370;2024-01-30T17:10:26;31.67;;;12.15;;
83471;SDS011;74051;47.120;18.370;2024-01-30T17:12:53;29.65;;;13.57;;
83471;SDS011;74051;47.120;18.370;2024-01-30T17:15:19;29.42;;;14.52;;
83471;SDS011;74051;47.120;18.370;2024-01-30T17:17:46;40.80;;;17.10;;
83471;SDS011;74051;47.120;18.370;2024-01-30T17:20:12;41.47;;;17.15;;
83471;SDS011;74051;47.120;18.370;2024-01-30T17:22:39;41.53;;;17.85;;
83471;SDS011;74051;47.120;18.370;2024-01-30T17:25:05;37.03;;;15.18;;
83471;SDS011;74051;47.120;18.370;2024-01-30T17:27:32;35.17;;;14.02;;
83471;SDS011;74051;47.120;18.370;2024-01-30T17:29:58;35.40;;;16.27;;
83471;SDS011;74051;47.120;18.370;2024-01-30T17:32:25;34.33;;;14.48;;
83471;SDS011;74051;47.120;18.370;2024-01-30T17:34:51;39.85;;;16.77;;
83471;SDS011;74051;47.120;18.370;2024-01-30T17:37:17;38.92;;;17.13;;
83471;SDS011;74051;47.120;18.370;2024-01-30T17:39:44;53.90;;;20.17;;
83471;SDS011;74051;47.120;18.370;2024-01-30T17:42:11;70.63;;;24.75;;
83471;SDS011;74051;47.120;18.370;2024-01-30T17:44:38;68.80;;;24.08;;
83471;SDS011;74051;47.120;18.370;2024-01-30T17:47:05;79.18;;;30.98;;
83471;SDS011;74051;47.120;18.370;2024-01-30T17:49:35;92.68;;;30.00;;
83471;SDS011;74051;47.120;18.370;2024-01-30T17:52:02;97.43;;;33.22;;
83471;SDS011;74051;47.120;18.370;2024-01-30T17:54:28;89.97;;;32.22;;
83471;SDS011;74051;47.120;18.370;2024-01-30T17:56:55;86.07;;;29.45;;
83471;SDS011;74051;47.120;18.370;2024-01-30T17:59:22;73.63;;;27.75;;
83471;SDS011;74051;47.120;18.370;2024-01-30T18:01:49;75.32;;;28.20;;
83471;SDS011;74051;47.120;18.370;2024-01-30T18:04:16;77.20;;;29.05;;
83471;SDS011;74051;47.120;18.370;2024-01-30T18:06:53;80.28;;;28.05;;
83471;SDS011;74051;47.120;18.370;2024-01-30T18:09:21;85.90;;;26.48;;
83471;SDS011;74051;47.120;18.370;2024-01-30T18:11:48;96.55;;;29.80;;
83471;SDS011;74051;47.120;18.370;2024-01-30T18:14:15;103.00;;;30.40;;
83471;SDS011;74051;47.120;18.370;2024-01-30T18:16:41;128.60;;;35.40;;
83471;SDS011;74051;47.120;18.370;2024-01-30T18:19:08;121.78;;;37.03;;
83471;SDS011;74051;47.120;18.370;2024-01-30T18:21:34;113.93;;;34.03;;
83471;SDS011;74051;47.120;18.370;2024-01-30T18:24:01;121.60;;;35.78;;
83471;SDS011;74051;47.120;18.370;2024-01-30T18:26:27;121.25;;;34.92;;
83471;SDS011;74051;47.120;18.370;2024-01-30T18:28:53;114.55;;;33.17;;
83471;SDS011;74051;47.120;18.370;2024-01-30T18:31:23;116.55;;;35.85;;
83471;SDS011;74051;47.120;18.370;2024-01-30T18:33:50;105.63;;;34.47;;
83471;SDS011;74051;47.120;18.370;2024-01-30T18:36:17;101.22;;;33.60;;
83471;SDS011;74051;47.120;18.370;2024-01-30T18:38:45;120.50;;;36.03;;
83471;SDS011;74051;47.120;18.370;2024-01-30T18:41:12;102.32;;;35.47;;
83471;SDS011;74051;47.120;18.370;2024-01-30T18:43:38;108.38;;;36.83;;
83471;SDS011;74051;47.120;18.370;2024-01-30T18:46:07;127.75;;;37.47;;
83471;SDS011;74051;47.120;18.370;2024-01-30T18:48:37;102.80;;;36.08;;
83471;SDS011;74051;47.120;18.370;2024-01-30T18:51:05;95.25;;;32.33;;
83471;SDS011;74051;47.120;18.370;2024-01-30T18:53:32;96.15;;;31.30;;
83471;SDS011;74051;47.120;18.370;2024-01-30T18:55:59;97.38;;;31.58;;
83471;SDS011;74051;47.120;18.370;2024-01-30T18:58:28;101.18;;;32.72;;
83471;SDS011;74051;47.120;18.370;2024-01-30T19:00:55;87.05;;;30.45;;
83471;SDS011;74051;47.120;18.370;2024-01-30T19:03:22;93.80;;;31.67;;
83471;SDS011;74051;47.120;18.370;2024-01-30T19:05:50;102.25;;;32.58;;
83471;SDS011;74051;47.120;18.370;2024-01-30T19:08:17;90.47;;;28.75;;
83471;SDS011;74051;47.120;18.370;2024-01-30T19:10:44;83.72;;;29.13;;
83471;SDS011;74051;47.120;18.370;2024-01-30T19:13:12;87.28;;;32.33;;
83471;SDS011;74051;47.120;18.370;2024-01-30T19:15:40;101.80;;;32.25;;
83471;SDS011;74051;47.120;18.370;2024-01-30T19:18:10;105.75;;;31.88;;
83471;SDS011;74051;47.120;18.370;2024-01-30T19:20:39;90.13;;;29.60;;
83471;SDS011;74051;47.120;18.370;2024-01-30T19:23:07;89.45;;;29.25;;
83471;SDS011;74051;47.120;18.370;2024-01-30T19:25:34;78.10;;;27.15;;
83471;SDS011;74051;47.120;18.370;2024-01-30T19:28:01;99.25;;;31.80;;
83471;SDS011;74051;47.120;18.370;2024-01-30T19:30:28;87.93;;;31.60;;
83471;SDS011;74051;47.120;18.370;2024-01-30T19:32:56;90.13;;;30.98;;
83471;SDS011;74051;47.120;18.370;2024-01-30T19:35:24;77.13;;;30.23;;
83471;SDS011;74051;47.120;18.370;2024-01-30T19:37:51;74.95;;;27.27;;
83471;SDS011;74051;47.120;18.370;2024-01-30T19:40:19;75.03;;;25.92;;
83471;SDS011;74051;47.120;18.370;2024-01-30T19:42:47;60.65;;;25.48;;
83471;SDS011;74051;47.120;18.370;2024-01-30T19:45:17;74.53;;;29.52;;
83471;SDS011;74051;47.120;18.370;2024-01-30T19:47:44;76.05;;;30.88;;
83471;SDS011;74051;47.120;18.370;2024-01-30T19:50:11;69.68;;;28.15;;
83471;SDS011;74051;47.120;18.370;2024-01-30T19:52:39;61.67;;;26.25;;
83471;SDS011;74051;47.120;18.370;2024-01-30T19:55:09;66.85;;;25.88;;
83471;SDS011;74051;47.120;18.370;2024-01-30T19:57:36;64.38;;;26.55;;
83471;SDS011;74051;47.120;18.370;2024-01-30T20:00:03;78.93;;;31.70;;
83471;SDS011;74051;47.120;18.370;2024-01-30T20:02:31;84.65;;;31.00;;
83471;SDS011;74051;47.120;18.370;2024-01-30T20:04:58;88.72;;;31.80;;
83471;SDS011;74051;47.120;18.370;2024-01-30T20:07:25;141.85;;;43.88;;
83471;SDS011;74051;47.120;18.370;2024-01-30T20:09:51;108.28;;;36.67;;
83471;SDS011;74051;47.120;18.370;2024-01-30T20:12:18;126.00;;;39.72;;
83471;SDS011;74051;47.120;18.370;2024-01-30T20:14:45;132.65;;;43.70;;
83471;SDS011;74051;47.120;18.370;2024-01-30T20:17:12;118.68;;;40.97;;
83471;SDS011;74051;47.120;18.370;2024-01-30T20:19:42;105.35;;;35.58;;
83471;SDS011;74051;47.120;18.370;2024-01-30T20:22:10;98.85;;;37.28;;
83471;SDS011;74051;47.120;18.370;2024-01-30T20:24:36;134.10;;;44.30;;
83471;SDS011;74051;47.120;18.370;2024-01-30T20:27:03;150.68;;;48.72;;
83471;SDS011;74051;47.120;18.370;2024-01-30T20:29:30;138.32;;;44.92;;
83471;SDS011;74051;47.120;18.370;2024-01-30T20:31:57;116.88;;;38.75;;
83471;SDS011;74051;47.120;18.370;2024-01-30T20:34:24;118.30;;;37.58;;
83471;SDS011;74051;47.120;18.370;2024-01-30T20:36:51;114.55;;;40.78;;
83471;SDS011;74051;47.120;18.370;2024-01-30T20:39:19;116.15;;;40.85;;
83471;SDS011;74051;47.120;18.370;2024-01-30T20:41:46;125.28;;;41.13;;
83471;SDS011;74051;47.120;18.370;2024-01-30T20:44:15;123.18;;;40.70;;
83471;SDS011;74051;47.120;18.370;2024-01-30T20:46:44;119.10;;;39.15;;
83471;SDS011;74051;47.120;18.370;2024-01-30T20:49:12;115.30;;;39.85;;
83471;SDS011;74051;47.120;18.370;2024-01-30T20:51:40;119.65;;;38.80;;
83471;SDS011;74051;47.120;18.370;2024-01-30T20:54:08;111.72;;;38.85;;
83471;SDS011;74051;47.120;18.370;2024-01-30T20:56:35;130.55;;;44.42;;
83471;SDS011;74051;47.120;18.370;2024-01-30T20:59:02;109.93;;;41.47;;
83471;SDS011;74051;47.120;18.370;2024-01-30T21:01:31;88.15;;;33.55;;
83471;SDS011;74051;47.120;18.370;2024-01-30T21:03:58;84.30;;;32.85;;
83471;SDS011;74051;47.120;18.370;2024-01-30T21:06:24;77.22;;;30.60;;
83471;SDS011;74051;47.120;18.370;2024-01-30T21:08:51;81.00;;;31.13;;
83471;SDS011;74051;47.120;18.370;2024-01-30T21:11:18;84.82;;;35.33;;
83471;SDS011;74051;47.120;18.370;2024-01-30T21:13:45;100.93;;;36.45;;
83471;SDS011;74051;47.120;18.370;2024-01-30T21:16:12;89.07;;;35.33;;
83471;SDS011;74051;47.120;18.370;2024-01-30T21:18:38;115.95;;;42.65;;
83471;SDS011;74051;47.120;18.370;2024-01-30T21:21:08;116.45;;;40.58;;
83471;SDS011;74051;47.120;18.370;2024-01-30T21:23:35;107.72;;;39.88;;
83471;SDS011;74051;47.120;18.370;2024-01-30T21:26:02;113.40;;;41.50;;
83471;SDS011;74051;47.120;18.370;2024-01-30T21:28:33;123.97;;;43.53;;